Ashley, Ohio
Current Conditions -  °F | °C
As of 8:38 PM on Friday 21 Nov 2014 (Local Time) from KDLZ Reporting Station
Broken Clouds Broken Clouds  
Wind Chill: 18°   Ceiling: 11000
Heat Index: 18°   Visibility: 10mi
Dew Point:   Wind: 3mph
Humidity: 68%   Direction: 150°SSE
Pressure: 30.43"   Gusts: NA
Location:  40.41°N, 82.96°W
Report Text: KDLZ 220138Z AUTO 15003KT 10SM BKN110 M08/M13 A3043 RMK AO2
Loading
Personal Weather Stations






























Interactive Weather Map New forecast layout! Learn more

10-Day Weather Forecast

Advertisements
Track Severe Weather on mobile